Time;durP1;ratioP1;P1;durP2;ratioP2;P2;SDS_P1;SDS_P2;PMS_P1;PMS_P2;Temp;Humidity;BMP_temperature;BMP_pressure;BME280_temperature;BME280_humidity;BME280_pressure;Samples;Min_cycle;Max_cycle;Signal;HPM_P1;HPM_P2
2021/11/30 00:01:05;;;;;;;;;20.00;17.50;;;;;;;;5072823;27;49703;-69
2021/11/30 00:03:31;;;;;;;;;24.25;22.00;;;;;;;;5072439;28;49852;-69
2021/11/30 00:05:56;;;;;;;;;18.00;16.25;;;;;;;;5072251;28;49759;-70
2021/11/30 00:08:22;;;;;;;;;21.50;20.00;;;;;;;;5072569;28;49803;-69
2021/11/30 00:10:48;;;;;;;;;25.00;21.25;;;;;;;;5072424;28;49893;-69
2021/11/30 00:13:14;;;;;;;;;21.00;19.50;;;;;;;;5072246;28;50608;-68
2021/11/30 00:15:39;;;;;;;;;15.25;15.25;;;;;;;;5072381;27;49669;-67
2021/11/30 00:18:05;;;;;;;;;21.50;18.25;;;;;;;;5072249;27;49691;-71
2021/11/30 00:20:30;;;;;;;;;17.00;16.75;;;;;;;;5070539;28;50028;-69
2021/11/30 00:22:55;;;;;;;;;23.00;19.75;;;;;;;;5072026;27;49845;-68
2021/11/30 00:25:21;;;;;;;;;14.50;14.50;;;;;;;;5072095;28;49716;-66
2021/11/30 00:27:46;;;;;;;;;21.25;16.50;;;;;;;;5072254;27;49627;-68
2021/11/30 00:30:11;;;;;;;;;14.75;14.75;;;;;;;;5072414;28;49599;-67
2021/11/30 00:32:37;;;;;;;;;16.50;16.50;;;;;;;;5071998;28;49727;-67
2021/11/30 00:35:02;;;;;;;;;18.00;16.25;;;;;;;;5071814;28;50130;-69
2021/11/30 00:37:27;;;;;;;;;17.75;16.50;;;;;;;;5072196;27;49884;-67
2021/11/30 00:39:53;;;;;;;;;16.25;16.00;;;;;;;;5072212;28;49939;-66
2021/11/30 00:42:21;;;;;;;;;17.25;13.50;;;;;;;;5071818;28;49868;-68
2021/11/30 00:44:48;;;;;;;;;16.00;16.00;;;;;;;;5071842;27;49842;-67
2021/11/30 00:47:19;;;;;;;;;19.25;14.00;;;;;;;;5071872;28;50013;-69
2021/11/30 00:49:45;;;;;;;;;15.25;13.25;;;;;;;;5071747;28;49755;-67
2021/11/30 00:52:11;;;;;;;;;13.75;13.75;;;;;;;;5071638;27;49813;-67
2021/11/30 00:54:36;;;;;;;;;15.75;14.00;;;;;;;;5071811;27;49974;-66
2021/11/30 00:57:01;;;;;;;;;12.75;9.50;;;;;;;;5071901;28;49771;-69
2021/11/30 00:59:27;;;;;;;;;14.00;14.00;;;;;;;;5071325;27;49942;-68
2021/11/30 01:01:53;;;;;;;;;14.50;12.25;;;;;;;;5070101;28;51504;-68
2021/11/30 01:04:19;;;;;;;;;14.75;13.75;;;;;;;;5071352;27;49795;-69
2021/11/30 01:06:44;;;;;;;;;14.00;13.00;;;;;;;;5071803;28;49862;-68
2021/11/30 01:09:09;;;;;;;;;16.25;14.50;;;;;;;;5071769;28;50169;-69
2021/11/30 01:11:35;;;;;;;;;15.75;13.75;;;;;;;;5071153;28;49659;-69
2021/11/30 01:14:00;;;;;;;;;21.00;16.00;;;;;;;;5071493;27;49754;-69
2021/11/30 01:16:25;;;;;;;;;14.25;13.50;;;;;;;;5071327;28;49933;-69
2021/11/30 01:18:51;;;;;;;;;16.75;16.25;;;;;;;;5071704;27;49839;-70
2021/11/30 01:21:16;;;;;;;;;17.00;14.75;;;;;;;;5071006;28;50911;-68
2021/11/30 01:23:41;;;;;;;;;13.75;13.75;;;;;;;;5071226;28;49818;-69
2021/11/30 01:26:07;;;;;;;;;13.75;13.00;;;;;;;;5071523;28;49687;-68
2021/11/30 01:28:32;;;;;;;;;14.00;12.75;;;;;;;;5071542;27;49710;-68
2021/11/30 01:30:58;;;;;;;;;17.25;13.50;;;;;;;;5071108;28;49787;-68
2021/11/30 01:33:23;;;;;;;;;13.00;12.75;;;;;;;;5071164;27;49814;-71
2021/11/30 01:35:49;;;;;;;;;14.75;14.50;;;;;;;;5070919;28;49715;-72
2021/11/30 01:38:14;;;;;;;;;14.00;14.00;;;;;;;;5071295;28;49615;-68
2021/11/30 01:40:41;;;;;;;;;16.75;14.75;;;;;;;;5070864;28;50557;-69
2021/11/30 01:43:08;;;;;;;;;13.75;12.75;;;;;;;;5071232;27;49843;-72
2021/11/30 01:50:32;;;;;;;;;12.50;12.50;;;;;;;;5070569;28;50918;-69
2021/11/30 01:52:57;;;;;;;;;13.50;11.00;;;;;;;;5070708;27;49902;-69
2021/11/30 01:55:23;;;;;;;;;14.25;14.25;;;;;;;;5070872;28;49676;-71
2021/11/30 01:57:51;;;;;;;;;15.00;13.00;;;;;;;;5071039;27;49639;-66
2021/11/30 02:00:17;;;;;;;;;15.75;13.00;;;;;;;;5070732;27;49911;-67
2021/11/30 02:02:42;;;;;;;;;12.25;12.25;;;;;;;;5070953;27;49687;-72
2021/11/30 02:05:08;;;;;;;;;14.50;14.00;;;;;;;;5070702;27;49701;-67
2021/11/30 02:07:34;;;;;;;;;15.00;14.25;;;;;;;;5069776;28;50066;-68
2021/11/30 02:10:00;;;;;;;;;17.00;13.00;;;;;;;;5070683;28;50692;-68
2021/11/30 02:12:25;;;;;;;;;15.50;14.00;;;;;;;;5070534;27;49781;-67
2021/11/30 02:14:52;;;;;;;;;13.25;13.25;;;;;;;;5070545;27;49672;-70
2021/11/30 02:17:18;;;;;;;;;18.00;15.25;;;;;;;;5070823;27;49739;-68
2021/11/30 02:19:56;;;;;;;;;17.25;15.75;;;;;;;;5070304;28;50596;-69
2021/11/30 02:22:22;;;;;;;;;14.00;11.50;;;;;;;;5071900;27;49787;-68
2021/11/30 02:24:47;;;;;;;;;14.50;12.50;;;;;;;;5074316;27;49619;-69
2021/11/30 02:27:12;;;;;;;;;14.25;12.00;;;;;;;;5072932;28;49711;-68
2021/11/30 02:29:38;;;;;;;;;15.50;11.25;;;;;;;;5074011;27;49815;-68
2021/11/30 02:32:03;;;;;;;;;13.00;13.00;;;;;;;;5074206;27;49815;-68
2021/11/30 02:34:29;;;;;;;;;13.00;13.00;;;;;;;;5073568;27;49806;-67
2021/11/30 02:37:02;;;;;;;;;14.25;14.00;;;;;;;;5074240;27;49545;-68
2021/11/30 02:39:28;;;;;;;;;11.00;11.00;;;;;;;;5073924;28;49817;-67
2021/11/30 02:41:53;;;;;;;;;17.00;15.25;;;;;;;;5073935;28;49990;-69
2021/11/30 02:44:20;;;;;;;;;13.25;13.25;;;;;;;;5073975;27;49783;-68
2021/11/30 02:46:46;;;;;;;;;18.25;16.50;;;;;;;;5074209;27;49729;-67
2021/11/30 02:49:13;;;;;;;;;18.25;15.50;;;;;;;;5073216;27;50284;-67
2021/11/30 02:51:41;;;;;;;;;14.00;12.50;;;;;;;;5073769;27;49737;-68
2021/11/30 02:54:08;;;;;;;;;12.50;11.50;;;;;;;;5072296;28;49753;-68
2021/11/30 02:56:41;;;;;;;;;21.50;18.25;;;;;;;;5074029;27;49786;-70
2021/11/30 02:59:06;;;;;;;;;15.00;14.75;;;;;;;;5073721;27;50576;-68
2021/11/30 03:01:32;;;;;;;;;15.50;13.50;;;;;;;;5073688;28;49660;-67
2021/11/30 03:03:58;;;;;;;;;17.25;12.25;;;;;;;;5073576;28;49826;-69
2021/11/30 03:06:23;;;;;;;;;11.25;11.25;;;;;;;;5073696;28;49831;-69
2021/11/30 03:08:48;;;;;;;;;14.50;13.25;;;;;;;;5073314;28;49587;-71
2021/11/30 03:11:13;;;;;;;;;17.25;15.25;;;;;;;;5072143;28;49803;-69
2021/11/30 03:13:39;;;;;;;;;11.00;11.00;;;;;;;;5073478;28;49554;-68
2021/11/30 03:16:04;;;;;;;;;20.50;17.00;;;;;;;;5073595;27;49958;-70
2021/11/30 03:18:29;;;;;;;;;13.50;13.50;;;;;;;;5073101;28;51099;-70
2021/11/30 03:20:55;;;;;;;;;12.50;11.25;;;;;;;;5073156;27;49898;-69
2021/11/30 03:23:20;;;;;;;;;14.00;13.00;;;;;;;;5073122;28;50117;-68
2021/11/30 03:25:45;;;;;;;;;15.00;14.00;;;;;;;;5073414;28;49634;-68
2021/11/30 03:28:10;;;;;;;;;17.25;15.25;;;;;;;;5073037;28;49726;-68
2021/11/30 03:30:38;;;;;;;;;17.25;14.00;;;;;;;;5073113;27;49780;-68
2021/11/30 03:35:47;;;;;;;;;13.75;12.00;;;;;;;;5072930;28;49623;-69
2021/11/30 03:38:13;;;;;;;;;11.25;11.00;;;;;;;;5072879;28;49671;-73
2021/11/30 03:40:39;;;;;;;;;17.50;16.25;;;;;;;;5073242;27;49885;-68
2021/11/30 03:43:04;;;;;;;;;13.75;12.00;;;;;;;;5073090;27;49766;-71
2021/11/30 03:45:30;;;;;;;;;13.75;13.75;;;;;;;;5071695;28;49934;-69
2021/11/30 03:47:55;;;;;;;;;16.00;15.00;;;;;;;;5072776;28;49813;-69
2021/11/30 03:50:20;;;;;;;;;12.25;12.25;;;;;;;;5072417;28;49689;-70
2021/11/30 03:52:45;;;;;;;;;11.25;11.25;;;;;;;;5072946;28;49671;-69
2021/11/30 03:55:11;;;;;;;;;14.50;12.00;;;;;;;;5073023;28;49809;-69
2021/11/30 03:57:36;;;;;;;;;14.75;14.25;;;;;;;;5072808;27;50884;-69
2021/11/30 04:00:07;;;;;;;;;8.75;6.75;;;;;;;;5072810;28;49675;-68
2021/11/30 04:02:32;;;;;;;;;9.75;7.25;;;;;;;;5072798;27;49814;-68
2021/11/30 04:04:58;;;;;;;;;11.25;11.25;;;;;;;;5072616;28;49787;-70
2021/11/30 04:07:23;;;;;;;;;16.25;13.00;;;;;;;;5072419;28;50008;-68
2021/11/30 04:09:48;;;;;;;;;12.50;11.75;;;;;;;;5072605;28;50113;-70
2021/11/30 04:12:13;;;;;;;;;13.75;13.75;;;;;;;;5072659;28;50065;-69
2021/11/30 04:14:38;;;;;;;;;14.75;14.75;;;;;;;;5072587;28;49710;-67
2021/11/30 04:17:06;;;;;;;;;14.75;14.75;;;;;;;;5072357;28;50724;-71
2021/11/30 04:19:31;;;;;;;;;14.75;10.00;;;;;;;;5072163;27;50023;-68
2021/11/30 04:21:56;;;;;;;;;15.50;12.50;;;;;;;;5072319;28;50077;-69
2021/11/30 04:24:21;;;;;;;;;11.00;9.25;;;;;;;;5072518;28;50062;-67
2021/11/30 04:26:47;;;;;;;;;14.75;14.75;;;;;;;;5072017;28;50492;-66
2021/11/30 04:29:12;;;;;;;;;11.75;11.75;;;;;;;;5072223;28;49794;-67
2021/11/30 04:31:37;;;;;;;;;5.75;5.00;;;;;;;;5072409;28;49597;-67
2021/11/30 04:34:05;;;;;;;;;11.75;11.75;;;;;;;;5071997;28;49677;-67
2021/11/30 04:36:32;;;;;;;;;12.50;12.00;;;;;;;;5070558;28;52685;-67
2021/11/30 04:38:57;;;;;;;;;14.00;10.00;;;;;;;;5070629;28;49745;-67
2021/11/30 04:41:23;;;;;;;;;12.50;10.25;;;;;;;;5072138;27;50030;-67
2021/11/30 04:43:48;;;;;;;;;5.00;5.00;;;;;;;;5072247;27;49581;-67
2021/11/30 04:46:17;;;;;;;;;11.75;11.75;;;;;;;;5071063;28;50398;-66
2021/11/30 04:48:52;;;;;;;;;14.50;14.00;;;;;;;;5070187;28;49739;-67
2021/11/30 04:51:17;;;;;;;;;16.25;14.75;;;;;;;;5071791;28;49865;-66
2021/11/30 04:53:44;;;;;;;;;9.50;9.50;;;;;;;;5072080;27;49954;-66
2021/11/30 04:56:13;;;;;;;;;13.25;10.75;;;;;;;;5071439;27;50575;-66
2021/11/30 04:58:38;;;;;;;;;11.00;11.00;;;;;;;;5071636;27;49810;-67
2021/11/30 05:01:03;;;;;;;;;15.25;14.25;;;;;;;;5071741;28;49717;-69
2021/11/30 05:03:28;;;;;;;;;14.25;14.25;;;;;;;;5071931;28;49756;-68
2021/11/30 05:05:54;;;;;;;;;15.50;15.00;;;;;;;;5071092;27;50305;-68
2021/11/30 05:08:19;;;;;;;;;13.50;13.50;;;;;;;;5071672;28;49651;-67
2021/11/30 05:10:44;;;;;;;;;14.00;14.00;;;;;;;;5071594;27;50086;-69
2021/11/30 05:13:09;;;;;;;;;12.25;12.25;;;;;;;;5071533;28;49109;-67
2021/11/30 05:15:35;;;;;;;;;11.50;11.00;;;;;;;;5071094;28;49805;-66
2021/11/30 05:18:00;;;;;;;;;15.50;15.00;;;;;;;;5069971;28;50030;-68
2021/11/30 05:20:25;;;;;;;;;15.00;12.25;;;;;;;;5071226;28;49786;-67
2021/11/30 05:22:52;;;;;;;;;14.50;13.25;;;;;;;;5071362;28;49688;-69
2021/11/30 05:25:18;;;;;;;;;8.75;8.75;;;;;;;;5071227;28;50521;-70
2021/11/30 05:27:44;;;;;;;;;12.75;11.00;;;;;;;;5071428;27;49696;-68
2021/11/30 05:30:14;;;;;;;;;14.75;14.25;;;;;;;;5071142;28;49688;-68
2021/11/30 05:32:43;;;;;;;;;11.25;11.25;;;;;;;;5071576;27;49721;-67
2021/11/30 05:35:09;;;;;;;;;16.75;15.00;;;;;;;;5070692;28;50946;-68
2021/11/30 05:37:34;;;;;;;;;13.75;13.25;;;;;;;;5071151;28;49719;-66
2021/11/30 05:39:59;;;;;;;;;14.25;13.50;;;;;;;;5071253;27;49719;-69
2021/11/30 05:42:25;;;;;;;;;18.25;15.50;;;;;;;;5071317;27;49954;-68
2021/11/30 05:44:51;;;;;;;;;6.25;5.25;;;;;;;;5071064;28;49708;-66
2021/11/30 05:47:16;;;;;;;;;18.00;13.75;;;;;;;;5069636;28;50007;-67
2021/11/30 05:49:41;;;;;;;;;14.25;14.25;;;;;;;;5070819;27;50237;-68
2021/11/30 05:52:07;;;;;;;;;15.50;13.50;;;;;;;;5071080;28;49670;-65
2021/11/30 05:54:32;;;;;;;;;12.75;10.50;;;;;;;;5070669;28;49963;-67
2021/11/30 05:56:57;;;;;;;;;15.75;15.25;;;;;;;;5069753;28;49764;-67
2021/11/30 05:59:25;;;;;;;;;18.25;15.25;;;;;;;;5070840;28;49651;-72
2021/11/30 06:01:50;;;;;;;;;16.25;13.50;;;;;;;;5071083;28;49990;-68
2021/11/30 06:04:15;;;;;;;;;14.00;13.00;;;;;;;;5070385;27;50402;-69
2021/11/30 06:06:40;;;;;;;;;11.75;11.50;;;;;;;;5069510;28;49625;-68
2021/11/30 06:09:07;;;;;;;;;14.50;14.50;;;;;;;;5073699;28;49879;-69
2021/11/30 06:11:32;;;;;;;;;12.00;10.00;;;;;;;;5070973;27;49871;-69
2021/11/30 06:13:58;;;;;;;;;18.25;13.50;;;;;;;;5072164;28;50564;-68
2021/11/30 06:16:23;;;;;;;;;14.25;12.75;;;;;;;;5075109;27;49830;-71
2021/11/30 06:18:49;;;;;;;;;10.25;10.25;;;;;;;;5070594;28;50325;-70
2021/11/30 06:21:15;;;;;;;;;12.75;12.50;;;;;;;;5070817;27;50097;-70
2021/11/30 06:23:41;;;;;;;;;16.00;14.50;;;;;;;;5075261;27;49780;-69
2021/11/30 06:26:07;;;;;;;;;17.25;16.25;;;;;;;;5070615;27;49922;-70
2021/11/30 06:28:33;;;;;;;;;12.00;12.00;;;;;;;;5070315;28;49866;-75
2021/11/30 06:30:58;;;;;;;;;14.25;10.00;;;;;;;;5070776;27;49840;-67
2021/11/30 06:33:23;;;;;;;;;15.25;13.75;;;;;;;;5070381;28;49713;-70
2021/11/30 06:35:49;;;;;;;;;14.75;13.25;;;;;;;;5070263;28;49704;-71
2021/11/30 06:38:14;;;;;;;;;10.25;10.25;;;;;;;;5070540;28;50024;-71
2021/11/30 06:40:39;;;;;;;;;11.00;10.25;;;;;;;;5070709;28;50209;-75
2021/11/30 06:43:04;;;;;;;;;14.25;14.25;;;;;;;;5070147;28;50185;-74
2021/11/30 06:45:30;;;;;;;;;15.50;13.00;;;;;;;;5070720;28;49652;-72
2021/11/30 06:47:55;;;;;;;;;15.00;11.50;;;;;;;;5071133;27;49836;-73
2021/11/30 06:50:20;;;;;;;;;17.50;15.50;;;;;;;;5070165;28;49892;-75
2021/11/30 06:52:48;;;;;;;;;15.00;13.00;;;;;;;;5070001;27;50624;-75
2021/11/30 06:55:14;;;;;;;;;11.00;11.00;;;;;;;;5069309;28;50011;-75
2021/11/30 06:57:39;;;;;;;;;14.50;13.00;;;;;;;;5068940;28;49845;-71
2021/11/30 07:00:06;;;;;;;;;14.75;14.75;;;;;;;;5070440;28;50121;-68
2021/11/30 07:02:33;;;;;;;;;13.25;13.25;;;;;;;;5069944;27;50759;-66
2021/11/30 07:05:05;;;;;;;;;11.25;10.25;;;;;;;;5069140;27;49779;-67
2021/11/30 07:07:51;;;;;;;;;16.25;14.00;;;;;;;;5069485;28;49741;-65
2021/11/30 07:10:36;;;;;;;;;12.00;11.00;;;;;;;;5074014;28;50009;-74
2021/11/30 07:15:31;;;;;;;;;19.00;14.50;;;;;;;;5073415;28;49683;-70
2021/11/30 07:17:57;;;;;;;;;11.75;11.75;;;;;;;;5073532;28;49751;-72
2021/11/30 07:20:23;;;;;;;;;25.00;18.25;;;;;;;;5073230;28;49906;-71
2021/11/30 07:22:48;;;;;;;;;11.75;10.25;;;;;;;;5073733;28;51353;-70
2021/11/30 07:25:13;;;;;;;;;14.75;14.75;;;;;;;;5073333;28;49943;-71
2021/11/30 07:27:39;;;;;;;;;18.50;14.50;;;;;;;;5071920;28;49813;-71
2021/11/30 07:30:04;;;;;;;;;14.00;11.25;;;;;;;;5073470;28;49632;-70
2021/11/30 07:32:29;;;;;;;;;16.25;15.25;;;;;;;;5073056;28;50394;-76
2021/11/30 07:34:54;;;;;;;;;11.25;10.00;;;;;;;;5072799;28;49768;-70
2021/11/30 07:37:20;;;;;;;;;19.25;18.00;;;;;;;;5071755;28;49880;-75
2021/11/30 07:39:45;;;;;;;;;18.75;16.00;;;;;;;;5073407;28;49711;-75
2021/11/30 07:42:10;;;;;;;;;15.00;15.00;;;;;;;;5075080;28;49758;-87
2021/11/30 07:44:35;;;;;;;;;18.50;18.00;;;;;;;;5077042;28;49822;-83
2021/11/30 07:47:01;;;;;;;;;18.25;15.50;;;;;;;;5077192;28;49612;-75
2021/11/30 07:49:26;;;;;;;;;14.50;12.50;;;;;;;;5075419;28;49699;-80
2021/11/30 07:51:51;;;;;;;;;21.50;16.50;;;;;;;;5073984;28;52079;-84
2021/11/30 07:54:16;;;;;;;;;13.50;13.50;;;;;;;;5074595;28;49806;-86
2021/11/30 07:56:42;;;;;;;;;19.00;16.50;;;;;;;;5083453;27;49876;-69
2021/11/30 07:59:08;;;;;;;;;17.25;15.50;;;;;;;;5083736;27;49481;-68
2021/11/30 08:01:33;;;;;;;;;15.00;15.00;;;;;;;;5088464;28;49588;-73
2021/11/30 08:03:58;;;;;;;;;18.75;14.50;;;;;;;;5088460;27;49592;-73
2021/11/30 08:06:23;;;;;;;;;15.75;13.25;;;;;;;;5076864;27;49665;-71
2021/11/30 08:08:50;;;;;;;;;15.50;15.25;;;;;;;;5089895;27;49408;-70
2021/11/30 08:11:16;;;;;;;;;18.50;15.00;;;;;;;;5090181;27;49940;-73
2021/11/30 08:13:41;;;;;;;;;16.75;16.50;;;;;;;;5076315;27;49602;-75
2021/11/30 08:16:06;;;;;;;;;21.00;18.50;;;;;;;;5090018;27;49397;-71
2021/11/30 08:18:31;;;;;;;;;18.75;17.00;;;;;;;;5081808;27;49725;-71
2021/11/30 08:20:57;;;;;;;;;17.50;15.00;;;;;;;;5081071;27;49964;-68
2021/11/30 08:23:22;;;;;;;;;23.00;18.75;;;;;;;;5075123;28;49646;-69
2021/11/30 08:25:48;;;;;;;;;13.75;12.25;;;;;;;;5070886;28;49652;-72
2021/11/30 08:28:13;;;;;;;;;16.25;16.25;;;;;;;;5072520;27;49677;-66
2021/11/30 08:30:38;;;;;;;;;19.00;15.50;;;;;;;;5072147;28;51022;-67
2021/11/30 08:33:04;;;;;;;;;18.75;18.25;;;;;;;;5072280;27;49667;-69
2021/11/30 08:35:29;;;;;;;;;22.00;15.25;;;;;;;;5071474;28;49657;-67
2021/11/30 08:37:54;;;;;;;;;18.25;18.25;;;;;;;;5071194;28;50064;-65
2021/11/30 08:40:20;;;;;;;;;19.75;18.50;;;;;;;;5071929;27;50416;-61
2021/11/30 08:42:45;;;;;;;;;24.25;21.75;;;;;;;;5071950;27;49768;-62
2021/11/30 08:45:10;;;;;;;;;28.50;24.25;;;;;;;;5072489;27;49925;-64
2021/11/30 08:47:36;;;;;;;;;22.25;20.25;;;;;;;;5072238;28;49749;-67
2021/11/30 08:50:03;;;;;;;;;25.25;19.50;;;;;;;;5071000;27;50730;-65
2021/11/30 08:52:30;;;;;;;;;24.25;20.50;;;;;;;;5069998;27;49760;-65
2021/11/30 08:54:56;;;;;;;;;22.25;18.00;;;;;;;;5069784;27;49673;-63
2021/11/30 08:57:23;;;;;;;;;23.25;20.00;;;;;;;;5069865;27;49761;-63
2021/11/30 08:59:48;;;;;;;;;26.00;23.00;;;;;;;;5069750;28;49995;-61
2021/11/30 09:02:14;;;;;;;;;24.75;20.50;;;;;;;;5069774;27;49922;-66
2021/11/30 09:04:39;;;;;;;;;20.00;19.00;;;;;;;;5069225;27;49738;-64
2021/11/30 09:07:04;;;;;;;;;17.00;14.75;;;;;;;;5071677;28;49790;-64
2021/11/30 09:09:30;;;;;;;;;21.75;21.00;;;;;;;;5071133;27;50392;-63
2021/11/30 09:11:56;;;;;;;;;29.25;23.00;;;;;;;;5071263;28;49637;-63
2021/11/30 09:14:22;;;;;;;;;25.25;24.00;;;;;;;;5071927;27;49875;-62
2021/11/30 09:16:51;;;;;;;;;23.25;21.25;;;;;;;;5071727;27;50036;-63
2021/11/30 09:19:17;;;;;;;;;25.75;21.25;;;;;;;;5070663;27;50871;-65
2021/11/30 09:21:42;;;;;;;;;25.50;22.50;;;;;;;;5071272;28;49624;-65
2021/11/30 09:24:07;;;;;;;;;19.50;19.00;;;;;;;;5071370;27;49777;-63
2021/11/30 09:26:33;;;;;;;;;23.50;19.25;;;;;;;;5071481;27;49964;-65
2021/11/30 09:28:58;;;;;;;;;19.75;16.25;;;;;;;;5070970;27;50632;-63
2021/11/30 09:31:23;;;;;;;;;18.50;18.50;;;;;;;;5071047;27;49695;-62
2021/11/30 09:33:48;;;;;;;;;22.75;22.75;;;;;;;;5071153;27;49689;-62
2021/11/30 09:36:15;;;;;;;;;24.50;23.00;;;;;;;;5071492;27;49780;-63
2021/11/30 09:38:41;;;;;;;;;27.25;24.25;;;;;;;;5071202;27;50403;-64
2021/11/30 09:41:06;;;;;;;;;19.50;12.50;;;;;;;;5069206;28;49679;-62
2021/11/30 09:43:33;;;;;;;;;30.25;25.75;;;;;;;;5071133;28;49675;-63
2021/11/30 09:46:01;;;;;;;;;29.25;27.25;;;;;;;;5071129;27;49757;-64
2021/11/30 09:48:27;;;;;;;;;26.00;21.75;;;;;;;;5070495;27;51643;-62
2021/11/30 09:50:53;;;;;;;;;24.25;19.50;;;;;;;;5070952;27;49706;-64
2021/11/30 09:53:18;;;;;;;;;27.50;25.25;;;;;;;;5070974;27;49745;-62
2021/11/30 09:55:46;;;;;;;;;25.25;21.75;;;;;;;;5071217;28;49770;-62
2021/11/30 09:58:11;;;;;;;;;28.75;27.75;;;;;;;;5070968;27;50032;-62
2021/11/30 10:00:38;;;;;;;;;25.25;24.75;;;;;;;;5070765;27;49745;-62
2021/11/30 10:03:03;;;;;;;;;31.75;26.00;;;;;;;;5070784;27;49758;-63
2021/11/30 10:05:28;;;;;;;;;25.00;22.50;;;;;;;;5070601;27;49858;-62
2021/11/30 10:07:54;;;;;;;;;22.25;20.50;;;;;;;;5070427;27;49659;-62
2021/11/30 10:10:29;;;;;;;;;23.50;21.75;;;;;;;;5070650;27;49561;-62
2021/11/30 10:13:00;;;;;;;;;27.75;26.50;;;;;;;;5069212;28;49973;-62
2021/11/30 10:15:26;;;;;;;;;22.50;22.50;;;;;;;;5070807;27;49929;-62
2021/11/30 10:17:52;;;;;;;;;25.75;21.50;;;;;;;;5070391;27;50569;-62
2021/11/30 10:20:18;;;;;;;;;23.50;22.25;;;;;;;;5070306;28;49648;-63
2021/11/30 10:22:43;;;;;;;;;21.75;20.00;;;;;;;;5070322;27;49816;-63
2021/11/30 10:25:20;;;;;;;;;17.75;17.00;;;;;;;;5070730;27;49951;-62
2021/11/30 10:27:48;;;;;;;;;21.00;19.25;;;;;;;;5070090;27;50605;-63
2021/11/30 10:30:15;;;;;;;;;22.75;18.75;;;;;;;;5070566;27;49718;-62
2021/11/30 10:32:43;;;;;;;;;13.00;12.75;;;;;;;;5070837;27;50015;-62
2021/11/30 10:35:09;;;;;;;;;22.00;21.50;;;;;;;;5070328;28;49906;-64
2021/11/30 10:37:39;;;;;;;;;21.25;18.75;;;;;;;;5070328;27;49618;-62
2021/11/30 10:40:06;;;;;;;;;21.50;20.00;;;;;;;;5069827;27;49540;-63
2021/11/30 10:42:32;;;;;;;;;24.25;20.00;;;;;;;;5070731;27;49782;-62
2021/11/30 10:44:57;;;;;;;;;22.75;21.50;;;;;;;;5074032;27;49832;-63
2021/11/30 10:47:24;;;;;;;;;17.25;15.75;;;;;;;;5072700;28;52114;-62
2021/11/30 10:50:11;;;;;;;;;17.00;16.00;;;;;;;;5073692;28;49580;-63
2021/11/30 10:52:40;;;;;;;;;23.00;20.50;;;;;;;;5073819;27;49812;-63
2021/11/30 10:55:05;;;;;;;;;18.00;16.00;;;;;;;;5073876;27;49759;-62
2021/11/30 10:57:32;;;;;;;;;22.75;19.75;;;;;;;;5073486;28;50363;-62
2021/11/30 11:00:06;;;;;;;;;20.50;20.50;;;;;;;;5071980;28;49897;-64
2021/11/30 11:03:01;;;;;;;;;17.00;16.50;;;;;;;;5073772;27;49620;-62
2021/11/30 11:05:29;;;;;;;;;19.00;18.00;;;;;;;;5073695;27;49473;-62
2021/11/30 11:07:59;;;;;;;;;17.00;15.75;;;;;;;;5073519;27;50377;-63
2021/11/30 11:10:25;;;;;;;;;17.00;10.50;;;;;;;;5073633;27;49613;-63
2021/11/30 11:12:51;;;;;;;;;12.75;12.25;;;;;;;;5073551;27;49795;-62
2021/11/30 11:15:35;;;;;;;;;18.00;17.00;;;;;;;;5073616;27;49884;-63
2021/11/30 11:18:17;;;;;;;;;16.00;14.50;;;;;;;;5073319;27;50798;-63
2021/11/30 11:20:42;;;;;;;;;17.00;13.00;;;;;;;;5073264;27;49968;-65
2021/11/30 11:23:07;;;;;;;;;15.25;13.50;;;;;;;;5073294;27;49898;-63
2021/11/30 11:25:32;;;;;;;;;18.25;16.25;;;;;;;;5073526;27;49739;-65
2021/11/30 11:27:58;;;;;;;;;14.00;14.00;;;;;;;;5073431;27;50621;-63
2021/11/30 11:30:23;;;;;;;;;18.00;15.25;;;;;;;;5073511;27;49958;-62
2021/11/30 11:32:49;;;;;;;;;20.00;15.00;;;;;;;;5073605;27;49921;-66
2021/11/30 11:35:16;;;;;;;;;19.50;15.75;;;;;;;;5072954;27;49820;-64
2021/11/30 11:37:43;;;;;;;;;16.00;13.50;;;;;;;;5073485;27;50738;-63
2021/11/30 11:40:09;;;;;;;;;13.75;11.75;;;;;;;;5072961;27;49705;-62
2021/11/30 11:42:36;;;;;;;;;18.50;15.75;;;;;;;;5073176;27;49512;-62
2021/11/30 11:45:01;;;;;;;;;13.50;13.50;;;;;;;;5073157;27;49695;-64
2021/11/30 11:47:26;;;;;;;;;11.75;11.50;;;;;;;;5072712;27;50519;-62
2021/11/30 11:49:54;;;;;;;;;18.25;16.25;;;;;;;;5073158;27;49941;-65
2021/11/30 11:52:19;;;;;;;;;14.50;12.50;;;;;;;;5072766;28;50122;-65
2021/11/30 11:54:55;;;;;;;;;13.00;8.00;;;;;;;;5071669;27;49889;-70
2021/11/30 11:57:23;;;;;;;;;12.75;12.75;;;;;;;;5072579;28;50048;-72
2021/11/30 11:59:48;;;;;;;;;14.00;14.00;;;;;;;;5072679;27;49665;-71
2021/11/30 12:02:23;;;;;;;;;14.50;12.25;;;;;;;;5072799;28;49757;-70
2021/11/30 12:05:00;;;;;;;;;12.50;12.25;;;;;;;;5072884;27;49656;-66
2021/11/30 12:07:28;;;;;;;;;12.75;11.25;;;;;;;;5072244;27;50485;-71
2021/11/30 12:10:13;;;;;;;;;15.75;13.50;;;;;;;;5071250;28;49882;-65
2021/11/30 12:12:38;;;;;;;;;16.25;10.50;;;;;;;;5072777;27;49822;-71
2021/11/30 12:15:04;;;;;;;;;13.50;12.75;;;;;;;;5072638;27;50001;-68
2021/11/30 12:17:29;;;;;;;;;14.00;12.75;;;;;;;;5072412;27;49729;-70
2021/11/30 12:19:57;;;;;;;;;7.00;5.00;;;;;;;;5072458;27;49749;-64
2021/11/30 12:22:40;;;;;;;;;17.50;13.75;;;;;;;;5072221;27;49643;-63
2021/11/30 12:25:06;;;;;;;;;12.50;12.00;;;;;;;;5072455;27;49849;-64
2021/11/30 12:27:31;;;;;;;;;12.50;12.50;;;;;;;;5072052;28;52082;-63
2021/11/30 12:29:56;;;;;;;;;18.50;12.50;;;;;;;;5072839;27;49723;-63
2021/11/30 12:32:22;;;;;;;;;15.50;13.75;;;;;;;;5072260;27;49616;-63
2021/11/30 12:34:49;;;;;;;;;9.75;9.75;;;;;;;;5072365;28;49675;-71
2021/11/30 12:37:28;;;;;;;;;16.50;13.25;;;;;;;;5071442;28;50581;-71
2021/11/30 12:39:54;;;;;;;;;14.00;14.00;;;;;;;;5072052;27;49780;-67
2021/11/30 12:42:19;;;;;;;;;14.50;11.50;;;;;;;;5072146;28;49850;-67
2021/11/30 12:44:45;;;;;;;;;14.50;14.00;;;;;;;;5072281;27;49815;-64
2021/11/30 12:47:27;;;;;;;;;14.75;12.25;;;;;;;;5071626;27;49767;-63
2021/11/30 12:49:52;;;;;;;;;16.00;12.75;;;;;;;;5072003;27;49697;-63
2021/11/30 12:52:43;;;;;;;;;12.00;11.50;;;;;;;;5071856;27;49592;-64
2021/11/30 12:55:08;;;;;;;;;13.00;13.00;;;;;;;;5066854;28;49645;-62
2021/11/30 12:57:33;;;;;;;;;16.80;14.00;;;;;;;;5072311;27;50029;-70
2021/11/30 13:00:02;;;;;;;;;11.50;11.00;;;;;;;;5071828;27;49800;-68
2021/11/30 13:02:34;;;;;;;;;9.75;9.75;;;;;;;;5071826;27;49889;-70
2021/11/30 13:05:08;;;;;;;;;13.00;12.50;;;;;;;;5072218;27;50229;-64
2021/11/30 13:07:55;;;;;;;;;11.75;11.75;;;;;;;;5071095;28;49677;-64
2021/11/30 13:10:24;;;;;;;;;12.25;11.50;;;;;;;;5063710;27;49706;-67
2021/11/30 13:12:50;;;;;;;;;11.00;9.00;;;;;;;;5072108;27;50033;-69
2021/11/30 13:15:18;;;;;;;;;12.00;12.00;;;;;;;;5071810;27;49609;-68
2021/11/30 13:17:44;;;;;;;;;11.50;11.50;;;;;;;;5071362;28;50481;-68
2021/11/30 13:20:11;;;;;;;;;11.75;11.75;;;;;;;;5071201;28;49766;-71
2021/11/30 13:22:40;;;;;;;;;12.50;11.50;;;;;;;;5071150;27;49797;-68
2021/11/30 13:25:09;;;;;;;;;12.00;12.00;;;;;;;;5071743;27;49816;-70
2021/11/30 13:27:35;;;;;;;;;13.25;13.25;;;;;;;;5070637;27;49795;-69
2021/11/30 13:30:13;;;;;;;;;12.00;11.25;;;;;;;;5071567;28;49936;-69
2021/11/30 13:32:42;;;;;;;;;14.50;14.00;;;;;;;;5070928;27;49765;-67
2021/11/30 13:35:09;;;;;;;;;13.50;13.50;;;;;;;;5071141;27;49767;-71
2021/11/30 13:37:36;;;;;;;;;12.50;11.00;;;;;;;;5071377;27;51879;-64
2021/11/30 13:40:02;;;;;;;;;13.00;12.50;;;;;;;;5071232;27;49579;-68
2021/11/30 13:42:27;;;;;;;;;14.00;14.00;;;;;;;;5071017;27;49642;-64
2021/11/30 13:44:52;;;;;;;;;15.75;15.50;;;;;;;;5071312;28;49764;-72
2021/11/30 13:47:18;;;;;;;;;15.25;14.00;;;;;;;;5071450;27;49929;-70
2021/11/30 13:49:47;;;;;;;;;20.75;18.00;;;;;;;;5070859;27;49672;-73
2021/11/30 13:52:23;;;;;;;;;18.25;17.50;;;;;;;;5070908;27;49551;-69
2021/11/30 13:54:56;;;;;;;;;17.75;17.75;;;;;;;;5071222;27;49794;-70
2021/11/30 13:57:24;;;;;;;;;24.00;18.25;;;;;;;;5070687;27;50712;-70
2021/11/30 13:59:56;;;;;;;;;23.25;18.50;;;;;;;;5070781;27;49699;-69
2021/11/30 14:02:32;;;;;;;;;20.50;18.75;;;;;;;;5071052;27;49673;-71
2021/11/30 14:05:01;;;;;;;;;21.75;18.25;;;;;;;;5070824;27;49878;-73
2021/11/30 14:07:29;;;;;;;;;14.00;14.00;;;;;;;;5070927;28;50500;-71
2021/11/30 14:09:58;;;;;;;;;18.50;18.50;;;;;;;;5071217;27;49740;-68
2021/11/30 14:12:24;;;;;;;;;18.25;18.25;;;;;;;;5070775;27;49546;-64
2021/11/30 14:14:51;;;;;;;;;12.50;12.50;;;;;;;;5070950;28;49764;-72
2021/11/30 14:17:21;;;;;;;;;15.00;15.00;;;;;;;;5070420;28;50453;-71
2021/11/30 14:19:47;;;;;;;;;14.50;13.25;;;;;;;;5074075;27;49674;-65
2021/11/30 14:22:19;;;;;;;;;20.50;18.75;;;;;;;;5073911;27;49796;-70
2021/11/30 14:25:22;;;;;;;;;17.25;14.75;;;;;;;;5074454;27;49853;-72
2021/11/30 14:27:49;;;;;;;;;18.25;15.25;;;;;;;;5031034;28;49905;-71